Time;durP1;ratioP1;P1;durP2;ratioP2;P2;SDS_P1;SDS_P2;PMS_P1;PMS_P2;Temp;Humidity;BMP_temperature;BMP_pressure;BME280_temperature;BME280_humidity;BME280_pressure;Samples;Min_cycle;Max_cycle;Signal;HPM_P1;HPM_P2
2023/09/20 00:01:22;;;;;;;10.60;3.00;;;;;;;17.86;100.00;100718.00;5033072;28;20021;-65
2023/09/20 00:03:48;;;;;;;7.55;2.90;;;;;;;17.80;100.00;100724.63;5049580;28;20502;-71
2023/09/20 00:06:14;;;;;;;10.57;2.97;;;;;;;17.65;100.00;100731.81;5050249;28;20051;-71
2023/09/20 00:08:39;;;;;;;10.25;3.05;;;;;;;17.65;100.00;100722.00;5049112;28;20036;-69
2023/09/20 00:11:07;;;;;;;13.20;3.13;;;;;;;17.66;100.00;100721.06;5031559;28;20025;-74
2023/09/20 00:13:33;;;;;;;12.95;2.88;;;;;;;17.59;100.00;100733.06;5049221;28;20064;-70
2023/09/20 00:16:00;;;;;;;11.65;2.75;;;;;;;17.54;100.00;100732.50;5050613;28;20094;-65
2023/09/20 00:18:25;;;;;;;12.70;2.97;;;;;;;17.48;100.00;100728.44;5049192;28;20017;-69
2023/09/20 00:20:51;;;;;;;13.25;3.05;;;;;;;17.42;100.00;100724.38;5050051;28;20052;-65
2023/09/20 00:23:20;;;;;;;9.52;3.05;;;;;;;17.43;100.00;100726.06;5048758;28;20037;-68
2023/09/20 00:25:47;;;;;;;12.30;4.40;;;;;;;17.37;100.00;100723.78;5049049;28;20380;-64
2023/09/20 00:28:13;;;;;;;10.82;3.35;;;;;;;17.30;100.00;100711.84;5049636;28;20036;-70
2023/09/20 00:30:40;;;;;;;13.65;3.85;;;;;;;17.26;100.00;100744.94;5049822;28;20379;-68
2023/09/20 00:33:05;;;;;;;15.48;3.47;;;;;;;17.23;100.00;100727.38;5031421;28;20387;-71
2023/09/20 00:35:30;;;;;;;17.00;3.28;;;;;;;17.22;100.00;100708.81;5048330;28;20025;-66
2023/09/20 00:37:57;;;;;;;14.82;3.42;;;;;;;17.24;100.00;100720.22;5048007;28;20025;-69
2023/09/20 00:40:23;;;;;;;15.52;3.50;;;;;;;17.30;100.00;100714.50;5048623;28;20024;-61
2023/09/20 00:42:50;;;;;;;12.13;3.15;;;;;;;17.28;100.00;100719.09;5048744;28;20086;-72
2023/09/20 00:45:16;;;;;;;11.63;2.88;;;;;;;17.25;100.00;100717.44;5049255;28;20032;-71
2023/09/20 00:47:44;;;;;;;9.68;2.97;;;;;;;17.31;100.00;100713.56;5049429;28;20043;-70
2023/09/20 00:50:13;;;;;;;8.88;3.53;;;;;;;17.28;100.00;100719.91;5048782;28;20060;-57
2023/09/20 00:52:39;;;;;;;;;;;;;;;17.29;100.00;100723.44;5048438;28;20460;-69
2023/09/20 00:55:07;;;;;;;13.93;3.15;;;;;;;17.26;100.00;100718.31;5030115;28;19913;-62
2023/09/20 00:57:32;;;;;;;13.23;3.22;;;;;;;17.33;100.00;100722.28;5030339;28;20033;-61
2023/09/20 00:59:58;;;;;;;12.13;3.70;;;;;;;17.22;100.00;100709.66;5031635;28;20478;-71
2023/09/20 01:02:24;;;;;;;8.40;3.22;;;;;;;17.17;100.00;100709.97;5031642;28;20052;-68
2023/09/20 01:04:51;;;;;;;12.10;3.60;;;;;;;17.10;100.00;100711.31;5032727;28;20021;-68
2023/09/20 01:07:18;;;;;;;14.73;3.17;;;;;;;16.98;100.00;100712.06;5048468;28;20049;-68
2023/09/20 01:09:45;;;;;;;14.88;3.45;;;;;;;16.99;100.00;100703.13;5048149;28;20064;-73
2023/09/20 01:12:11;;;;;;;10.25;3.15;;;;;;;16.93;100.00;100707.03;5047933;28;20060;-71
2023/09/20 01:14:37;;;;;;;16.50;3.53;;;;;;;16.96;100.00;100708.63;5048565;28;20053;-68
2023/09/20 01:17:09;;;;;;;12.27;3.50;;;;;;;17.00;100.00;100694.19;5048807;28;20119;-67
2023/09/20 01:19:35;;;;;;;13.07;3.50;;;;;;;17.20;100.00;100694.75;5047541;28;20056;-68
2023/09/20 01:22:00;;;;;;;12.63;3.55;;;;;;;17.31;100.00;100692.25;5048651;28;20059;-66
2023/09/20 01:24:28;;;;;;;15.85;3.45;;;;;;;17.39;100.00;100689.94;5047815;28;20035;-73
2023/09/20 01:26:55;;;;;;;17.25;4.05;;;;;;;17.43;100.00;100702.09;5030225;28;20029;-71
2023/09/20 01:29:21;;;;;;;15.07;3.63;;;;;;;17.54;100.00;100690.75;5048494;28;20025;-69
2023/09/20 01:31:47;;;;;;;17.35;3.53;;;;;;;17.62;100.00;100689.38;5048558;28;20032;-70
2023/09/20 01:34:12;;;;;;;11.48;3.67;;;;;;;17.66;100.00;100685.56;5047331;28;20033;-72
2023/09/20 01:36:37;;;;;;;12.00;3.00;;;;;;;17.63;100.00;100689.28;5046908;28;20086;-69
2023/09/20 01:39:08;;;;;;;12.13;3.30;;;;;;;17.60;100.00;100696.59;5046734;28;20533;-66
2023/09/20 01:41:33;;;;;;;14.68;3.75;;;;;;;17.59;100.00;100709.09;5046952;28;20029;-64
2023/09/20 01:43:58;;;;;;;16.30;3.72;;;;;;;17.60;100.00;100693.94;5047895;28;20025;-70
2023/09/20 01:46:25;;;;;;;15.02;3.75;;;;;;;17.63;100.00;100704.41;5048443;28;20055;-66
2023/09/20 01:48:51;;;;;;;13.10;3.92;;;;;;;17.79;100.00;100693.59;5046931;28;20036;-72
2023/09/20 01:51:16;;;;;;;10.73;3.83;;;;;;;17.81;100.00;100699.66;5047152;28;20029;-65
2023/09/20 01:53:41;;;;;;;12.82;3.58;;;;;;;17.81;100.00;100697.84;5046879;28;20040;-69
2023/09/20 01:56:07;;;;;;;11.52;3.63;;;;;;;17.86;100.00;100694.88;5047087;28;20029;-70
2023/09/20 01:58:32;;;;;;;10.88;3.20;;;;;;;17.86;100.00;100686.91;5047508;28;20035;-65
2023/09/20 02:00:57;;;;;;;11.90;3.22;;;;;;;17.65;100.00;100697.16;5047942;28;20058;-64
2023/09/20 02:03:27;;;;;;;9.68;3.60;;;;;;;17.52;100.00;100689.16;5046876;28;20056;-70
2023/09/20 02:05:52;;;;;;;12.68;3.55;;;;;;;17.70;100.00;100683.53;5048140;28;20025;-63
2023/09/20 02:08:18;;;;;;;11.60;3.25;;;;;;;17.77;100.00;100676.84;5046836;28;20055;-65
2023/09/20 02:10:44;;;;;;;10.15;3.47;;;;;;;17.70;100.00;100691.53;5046778;28;20033;-70
2023/09/20 02:13:10;;;;;;;11.98;3.47;;;;;;;17.57;100.00;100687.03;5047513;28;20021;-69
2023/09/20 02:15:35;;;;;;;10.68;3.28;;;;;;;17.48;100.00;100688.47;5047614;28;20093;-63
2023/09/20 02:18:05;;;;;;;15.80;3.70;;;;;;;17.48;100.00;100684.94;5047669;28;20032;-70
2023/09/20 02:20:34;;;;;;;13.32;3.20;;;;;;;17.45;100.00;100685.19;5012922;28;20026;-68
2023/09/20 02:23:00;;;;;;;10.32;3.35;;;;;;;17.44;100.00;100676.31;5009677;28;20025;-67
2023/09/20 02:25:26;;;;;;;12.82;3.50;;;;;;;17.39;100.00;100670.44;5029674;28;20703;-65
2023/09/20 02:27:57;;;;;;;10.00;3.20;;;;;;;17.35;100.00;100667.13;5047739;28;20025;-71
2023/09/20 02:30:28;;;;;;;10.65;3.50;;;;;;;17.35;100.00;100667.13;5030629;28;20158;-62
2023/09/20 02:32:57;;;;;;;13.65;3.00;;;;;;;17.31;100.00;100654.97;5048251;28;20075;-67
2023/09/20 02:35:24;;;;;;;8.13;3.00;;;;;;;17.24;100.00;100665.16;5029965;28;20120;-66
2023/09/20 02:37:50;;;;;;;14.70;3.70;;;;;;;17.14;100.00;100654.28;5048802;28;20371;-70
2023/09/20 02:40:19;;;;;;;13.25;3.72;;;;;;;17.07;100.00;100657.41;5050570;28;20086;-66
2023/09/20 02:42:49;;;;;;;9.65;3.30;;;;;;;17.10;100.00;100657.22;5050819;28;20029;-68
2023/09/20 02:45:18;;;;;;;15.48;3.30;;;;;;;17.16;100.00;100643.53;5033484;28;20033;-68
2023/09/20 02:47:46;;;;;;;8.38;3.05;;;;;;;17.18;100.00;100639.81;5034723;28;20029;-62
2023/09/20 02:50:16;;;;;;;11.25;2.92;;;;;;;17.19;100.00;100635.34;5051641;28;20017;-67
2023/09/20 02:52:42;;;;;;;9.35;3.00;;;;;;;17.26;100.00;100630.44;5049515;28;20091;-68
2023/09/20 02:55:08;;;;;;;10.68;3.53;;;;;;;17.15;100.00;100625.81;5050481;28;20055;-66
2023/09/20 02:57:37;;;;;;;14.18;3.45;;;;;;;17.14;100.00;100627.66;5049763;28;20025;-70
2023/09/20 03:00:14;;;;;;;13.30;3.42;;;;;;;17.17;100.00;100615.94;5050475;28;20021;-68
2023/09/20 03:02:43;;;;;;;7.68;2.92;;;;;;;17.15;100.00;100617.84;5050770;28;20107;-71
2023/09/20 03:05:08;;;;;;;11.98;3.63;;;;;;;17.12;100.00;100623.34;5050891;28;20020;-71
2023/09/20 03:07:33;;;;;;;7.43;2.90;;;;;;;17.11;100.00;100617.19;5048958;28;20515;-70
2023/09/20 03:09:59;;;;;;;10.75;3.03;;;;;;;17.14;100.00;100617.00;5050326;28;20024;-63
2023/09/20 03:12:26;;;;;;;12.00;3.40;;;;;;;17.16;100.00;100615.06;5049338;28;20017;-69
2023/09/20 03:14:53;;;;;;;14.02;3.00;;;;;;;17.21;100.00;100616.56;5050290;28;20056;-70
2023/09/20 03:17:19;;;;;;;11.95;3.17;;;;;;;17.17;100.00;100611.47;5033357;28;20033;-64
2023/09/20 03:19:45;;;;;;;9.77;3.03;;;;;;;17.18;100.00;100614.97;5050878;28;20029;-69
2023/09/20 03:22:13;;;;;;;10.43;2.97;;;;;;;17.18;100.00;100604.31;5048441;28;20535;-65
2023/09/20 03:24:40;;;;;;;13.07;3.20;;;;;;;17.16;100.00;100600.94;5050827;28;20021;-71
2023/09/20 03:27:05;;;;;;;12.27;3.13;;;;;;;17.11;100.00;100606.56;5049182;28;20036;-67
2023/09/20 03:29:31;;;;;;;11.63;3.33;;;;;;;17.10;100.00;100599.50;5032427;28;20040;-66
2023/09/20 03:31:58;;;;;;;10.70;3.60;;;;;;;17.03;100.00;100604.34;5032786;28;20033;-71
2023/09/20 03:34:23;;;;;;;9.82;2.85;;;;;;;17.03;100.00;100593.72;5049693;28;20025;-71
2023/09/20 03:36:50;;;;;;;12.55;3.47;;;;;;;17.02;100.00;100594.66;5049846;28;20032;-69
2023/09/20 03:39:17;;;;;;;8.90;3.20;;;;;;;17.03;100.00;100583.06;5050383;28;20044;-70
2023/09/20 03:41:42;;;;;;;8.43;3.00;;;;;;;17.07;100.00;100590.88;5049823;28;20101;-69
2023/09/20 03:44:08;;;;;;;10.70;2.85;;;;;;;17.04;100.00;100582.09;5051271;28;20084;-69
2023/09/20 03:46:34;;;;;;;8.73;3.40;;;;;;;17.06;100.00;100589.97;5050192;28;20017;-64
2023/09/20 03:48:59;;;;;;;6.75;2.90;;;;;;;17.11;100.00;100589.72;5049224;28;20167;-70
2023/09/20 03:51:25;;;;;;;11.38;3.50;;;;;;;17.09;100.00;100595.13;5049495;28;20513;-68
2023/09/20 03:53:50;;;;;;;9.90;2.85;;;;;;;17.07;100.00;100582.88;5049170;28;20472;-66
2023/09/20 03:56:16;;;;;;;10.57;3.60;;;;;;;16.98;100.00;100579.00;5048367;28;20124;-69
2023/09/20 03:58:42;;;;;;;10.02;3.08;;;;;;;16.98;100.00;100577.16;5049117;28;20022;-65
2023/09/20 04:01:08;;;;;;;13.85;3.20;;;;;;;16.98;100.00;100571.00;5049246;28;20325;-71
2023/09/20 04:03:34;;;;;;;9.95;2.95;;;;;;;17.02;100.00;100569.84;5047698;28;20025;-68
2023/09/20 04:06:01;;;;;;;11.10;2.97;;;;;;;16.95;100.00;100563.22;5048326;28;20057;-72
2023/09/20 04:08:26;;;;;;;8.27;2.90;;;;;;;16.94;100.00;100562.38;5049157;28;20053;-69
2023/09/20 04:10:51;;;;;;;13.68;3.85;;;;;;;16.95;100.00;100568.56;5049388;28;20037;-71
2023/09/20 04:13:17;;;;;;;9.93;3.10;;;;;;;16.90;100.00;100569.72;5049750;28;20039;-69
2023/09/20 04:15:44;;;;;;;8.18;2.72;;;;;;;16.89;100.00;100567.97;5049523;28;20037;-73
2023/09/20 04:18:10;;;;;;;7.97;2.80;;;;;;;16.88;100.00;100568.94;5049961;28;20032;-60
2023/09/20 04:20:36;;;;;;;10.73;3.10;;;;;;;16.87;100.00;100559.25;5048369;28;20029;-63
2023/09/20 04:23:02;;;;;;;10.50;2.90;;;;;;;16.89;100.00;100553.84;5050148;28;20025;-63
2023/09/20 04:25:28;;;;;;;4.78;2.63;;;;;;;16.90;100.00;100545.75;5049168;28;20040;-69
2023/09/20 04:27:53;;;;;;;7.60;2.60;;;;;;;16.89;100.00;100543.19;5049439;28;20476;-71
2023/09/20 04:30:18;;;;;;;9.05;2.85;;;;;;;16.87;100.00;100535.31;5032608;28;20033;-73
2023/09/20 04:32:44;;;;;;;10.18;3.25;;;;;;;16.77;100.00;100534.22;5049357;28;20471;-68
2023/09/20 04:35:09;;;;;;;13.05;3.55;;;;;;;16.79;100.00;100540.25;5048358;28;20276;-71
2023/09/20 04:37:35;;;;;;;10.98;3.08;;;;;;;16.79;100.00;100537.59;5048701;28;20664;-71
2023/09/20 04:40:00;;;;;;;7.82;3.13;;;;;;;16.79;100.00;100537.59;5048880;28;20028;-62
2023/09/20 04:42:27;;;;;;;10.20;2.63;;;;;;;16.77;100.00;100536.88;5048508;28;20021;-69
2023/09/20 04:44:53;;;;;;;8.38;3.08;;;;;;;16.76;100.00;100536.00;5049028;28;20048;-65
2023/09/20 04:47:18;;;;;;;8.57;3.40;;;;;;;16.73;100.00;100530.88;5015131;28;20124;-67
2023/09/20 04:49:44;;;;;;;9.82;2.75;;;;;;;16.71;100.00;100531.94;5048201;28;20107;-70
2023/09/20 04:52:11;;;;;;;10.35;3.03;;;;;;;16.68;100.00;100535.66;5033261;28;20391;-65
2023/09/20 04:54:37;;;;;;;8.68;3.15;;;;;;;16.63;100.00;100533.31;5049091;28;20025;-69
2023/09/20 04:57:04;;;;;;;11.13;2.95;;;;;;;16.64;100.00;100524.34;5049453;28;20025;-72
2023/09/20 04:59:30;;;;;;;9.43;3.05;;;;;;;16.58;100.00;100530.06;5039357;28;20044;-69
2023/09/20 05:01:56;;;;;;;10.65;2.65;;;;;;;16.56;100.00;100532.00;5045051;28;20028;-70
2023/09/20 05:04:21;;;;;;;10.18;3.15;;;;;;;16.55;100.00;100536.44;5049698;28;20028;-65
2023/09/20 05:06:47;;;;;;;12.77;3.35;;;;;;;16.55;100.00;100531.13;5029518;28;20044;-73
2023/09/20 05:09:12;;;;;;;10.60;3.33;;;;;;;16.55;100.00;100555.06;5049065;28;20053;-73
2023/09/20 05:11:38;;;;;;;8.82;3.33;;;;;;;16.57;100.00;100539.00;5048699;28;20021;-71
2023/09/20 05:14:06;;;;;;;11.50;2.97;;;;;;;16.59;100.00;100534.47;5048311;28;20039;-69
2023/09/20 05:16:32;;;;;;;10.38;3.58;;;;;;;16.61;100.00;100540.50;5030100;28;20025;-72
2023/09/20 05:18:57;;;;;;;8.88;3.10;;;;;;;16.64;100.00;100527.03;5048336;28;20025;-70
2023/09/20 05:21:23;;;;;;;10.38;2.90;;;;;;;16.67;100.00;100532.16;5046886;28;20052;-68
2023/09/20 05:23:48;;;;;;;6.85;3.00;;;;;;;16.69;100.00;100542.69;5030441;28;20595;-71
2023/09/20 05:26:14;;;;;;;10.93;2.78;;;;;;;16.70;100.00;100532.91;5037617;28;20049;-73
2023/09/20 05:28:39;;;;;;;16.90;3.17;;;;;;;16.69;100.00;100537.38;5031214;28;20024;-72
2023/09/20 05:31:05;;;;;;;8.60;2.95;;;;;;;16.63;100.00;100530.63;5034602;28;20034;-67
2023/09/20 05:33:31;;;;;;;9.90;2.90;;;;;;;16.63;100.00;100527.97;5048281;28;20082;-69
2023/09/20 05:36:00;;;;;;;11.52;3.28;;;;;;;16.62;100.00;100528.91;5046324;28;20415;-64
2023/09/20 05:38:26;;;;;;;7.80;2.97;;;;;;;16.60;100.00;100525.50;5047718;28;20024;-70
2023/09/20 05:40:51;;;;;;;12.10;3.10;;;;;;;16.60;100.00;100538.81;5048322;28;20027;-62
2023/09/20 05:43:17;;;;;;;10.50;3.22;;;;;;;16.51;100.00;100539.41;5043909;28;20017;-72
2023/09/20 05:45:42;;;;;;;12.27;3.22;;;;;;;16.57;100.00;100531.03;5027536;28;20099;-70
2023/09/20 05:48:09;;;;;;;11.27;2.85;;;;;;;16.57;100.00;100536.34;5037086;28;20041;-67
2023/09/20 05:50:35;;;;;;;8.85;3.00;;;;;;;16.62;100.00;100536.88;5026604;28;20614;-66
2023/09/20 05:53:03;;;;;;;9.98;2.80;;;;;;;16.65;100.00;100536.69;5033062;28;20116;-73
2023/09/20 05:55:32;;;;;;;8.25;3.10;;;;;;;16.64;100.00;100542.13;5047745;28;20032;-73
2023/09/20 05:57:58;;;;;;;7.13;2.72;;;;;;;16.73;100.00;100533.53;5046669;28;20040;-73
2023/09/20 06:00:23;;;;;;;11.63;3.70;;;;;;;16.76;100.00;100532.47;5048035;28;20028;-68
2023/09/20 06:02:51;;;;;;;8.13;2.75;;;;;;;16.76;100.00;100520.03;5047982;28;20597;-69
2023/09/20 06:05:18;;;;;;;12.98;2.85;;;;;;;16.83;100.00;100538.28;5027729;28;20115;-73
2023/09/20 06:07:44;;;;;;;6.30;2.58;;;;;;;16.90;100.00;100532.47;5029510;28;20036;-67
2023/09/20 06:10:11;;;;;;;8.07;2.90;;;;;;;16.90;100.00;100534.25;5047257;28;20027;-74
2023/09/20 06:12:36;;;;;;;8.13;2.33;;;;;;;16.89;100.00;100530.72;5031831;28;20088;-66
2023/09/20 06:15:04;;;;;;;9.25;3.05;;;;;;;16.84;100.00;100524.88;5034238;28;20574;-73
2023/09/20 06:17:31;;;;;;;9.73;2.35;;;;;;;16.95;100.00;100531.28;5051481;28;20029;-69
2023/09/20 06:20:00;;;;;;;10.02;2.97;;;;;;;16.99;100.00;100522.16;5052317;28;20017;-69
2023/09/20 06:22:29;;;;;;;;;;;;;;;16.97;100.00;100521.38;5050469;28;20420;-73
2023/09/20 06:24:58;;;;;;;7.38;2.90;;;;;;;17.01;100.00;100521.09;5052367;28;19912;-69
2023/09/20 06:27:24;;;;;;;7.47;2.35;;;;;;;17.02;100.00;100522.81;5051931;28;20035;-71
2023/09/20 06:29:51;;;;;;;8.35;2.38;;;;;;;17.02;100.00;100529.94;5051708;28;20021;-73
2023/09/20 06:32:16;;;;;;;7.15;2.67;;;;;;;17.07;100.00;100525.19;5051009;28;20029;-66
2023/09/20 06:34:42;;;;;;;8.32;2.60;;;;;;;17.08;100.00;100526.03;5050621;28;20168;-73
2023/09/20 06:37:09;;;;;;;6.70;3.00;;;;;;;17.11;100.00;100542.66;5050855;28;20475;-68
2023/09/20 06:39:36;;;;;;;8.80;2.63;;;;;;;17.09;100.00;100538.38;5050698;28;20021;-70
2023/09/20 06:42:02;;;;;;;6.22;2.72;;;;;;;17.13;100.00;100535.41;5050869;28;20379;-68
2023/09/20 06:44:27;;;;;;;8.00;2.75;;;;;;;17.21;100.00;100534.03;5051427;28;20103;-72
2023/09/20 06:46:53;;;;;;;10.55;2.88;;;;;;;17.22;100.00;100535.78;5051315;28;20029;-66
2023/09/20 06:49:18;;;;;;;9.38;2.67;;;;;;;17.22;100.00;100527.78;5051044;28;20017;-70
2023/09/20 06:51:43;;;;;;;6.45;2.70;;;;;;;17.18;100.00;100517.34;5050161;28;20065;-71
2023/09/20 06:54:09;;;;;;;6.68;2.30;;;;;;;17.17;100.00;100526.28;5051569;28;20020;-73
2023/09/20 06:56:37;;;;;;;10.55;2.88;;;;;;;17.24;100.00;100539.16;5049992;28;20104;-73
2023/09/20 06:59:03;;;;;;;11.27;2.97;;;;;;;17.17;100.00;100526.28;5051491;28;20031;-72
2023/09/20 07:01:29;;;;;;;8.90;3.13;;;;;;;17.19;100.00;100523.53;5051303;28;20095;-72
2023/09/20 07:03:54;;;;;;;6.57;2.50;;;;;;;17.20;100.00;100516.38;5049628;28;20112;-68
2023/09/20 07:06:19;;;;;;;7.18;2.67;;;;;;;17.22;100.00;100506.47;5050665;28;20021;-70
2023/09/20 07:08:45;;;;;;;8.65;2.90;;;;;;;17.25;100.00;100522.25;5051332;28;20473;-71
2023/09/20 07:11:13;;;;;;;5.57;2.63;;;;;;;17.31;100.00;100527.16;5049985;28;20499;-75
2023/09/20 07:13:38;;;;;;;6.13;2.55;;;;;;;17.34;100.00;100526.94;5051085;28;20116;-74
2023/09/20 07:16:07;;;;;;;5.28;2.65;;;;;;;17.31;100.00;100543.16;5050976;28;20183;-75
2023/09/20 07:18:32;;;;;;;7.07;2.97;;;;;;;17.23;100.00;100535.66;5051135;28;20107;-74
2023/09/20 07:20:58;;;;;;;6.72;2.55;;;;;;;17.22;100.00;100538.44;5051607;28;20113;-74
2023/09/20 07:23:23;;;;;;;6.40;2.60;;;;;;;17.18;100.00;100551.09;5051606;28;20049;-70
2023/09/20 07:25:53;;;;;;;5.90;2.65;;;;;;;17.20;100.00;100551.84;5051963;28;20028;-75
2023/09/20 07:28:18;;;;;;;7.15;2.30;;;;;;;17.28;100.00;100548.69;5053929;28;20029;-74
2023/09/20 07:30:47;;;;;;;6.80;2.65;;;;;;;17.28;100.00;100548.69;5055488;28;20032;-70
2023/09/20 07:33:18;;;;;;;;;;;;;;;17.29;100.00;100545.03;5054632;28;20029;-65
2023/09/20 07:35:47;;;;;;;11.32;2.58;;;;;;;17.24;100.00;100556.00;5051830;28;20263;-74
2023/09/20 07:38:18;;;;;;;7.22;2.67;;;;;;;17.28;100.00;100549.50;5050427;28;20098;-75
2023/09/20 07:40:44;;;;;;;9.38;2.88;;;;;;;17.28;100.00;100543.34;5049685;28;20035;-75
2023/09/20 07:43:10;;;;;;;5.15;2.58;;;;;;;17.19;100.00;100542.16;5051161;28;20084;-69
2023/09/20 07:45:39;;;;;;;6.10;2.88;;;;;;;17.24;100.00;100557.81;5051161;28;20025;-71
2023/09/20 07:48:12;;;;;;;15.88;3.22;;;;;;;17.27;100.00;100562.94;5051575;28;20025;-74
2023/09/20 07:50:55;;;;;;;9.98;2.83;;;;;;;17.34;100.00;100558.06;5050555;28;20373;-64
2023/09/20 07:53:21;;;;;;;6.28;2.85;;;;;;;17.30;100.00;100560.06;5050743;28;20048;-64
2023/09/20 07:56:06;;;;;;;4.15;2.35;;;;;;;17.23;100.00;100566.75;5049314;28;20037;-75
2023/09/20 07:58:33;;;;;;;9.02;2.70;;;;;;;17.27;100.00;100563.78;5049471;28;20067;-75
2023/09/20 08:00:59;;;;;;;8.43;2.97;;;;;;;17.30;100.00;100568.03;5049624;28;20075;-73
2023/09/20 08:03:28;;;;;;;6.45;2.88;;;;;;;17.26;100.00;100566.56;5049995;28;20044;-71
2023/09/20 08:05:55;;;;;;;8.98;3.22;;;;;;;17.32;100.00;100570.59;5048429;28;20045;-68
2023/09/20 08:08:20;;;;;;;6.70;2.92;;;;;;;17.33;100.00;100575.84;5049201;28;20384;-71
2023/09/20 08:10:46;;;;;;;11.85;3.03;;;;;;;17.36;100.00;100569.44;5050033;28;20083;-67
2023/09/20 08:13:11;;;;;;;6.63;2.80;;;;;;;17.35;100.00;100581.06;5049877;28;20111;-73
2023/09/20 08:15:43;;;;;;;8.95;2.80;;;;;;;17.38;100.00;100583.50;5049390;28;20029;-69
2023/09/20 08:20:54;;;;;;;7.20;2.60;;;;;;;17.41;100.00;100591.31;5048808;28;20093;-67
2023/09/20 09:01:44;;;;;;;6.53;2.53;;;;;;;18.08;100.00;100556.59;5034601;28;20087;-69
2023/09/20 09:04:12;;;;;;;3.95;2.55;;;;;;;18.25;100.00;100552.78;5049527;28;20036;-69
2023/09/20 09:06:38;;;;;;;6.97;2.90;;;;;;;18.34;100.00;100556.59;5030863;28;20128;-68
2023/09/20 09:09:03;;;;;;;8.73;2.50;;;;;;;18.35;100.00;100564.50;5031772;28;20120;-65
2023/09/20 09:11:29;;;;;;;11.15;2.60;;;;;;;18.27;100.00;100557.03;5048626;28;20064;-72
2023/09/20 09:14:01;;;;;;;5.88;2.67;;;;;;;18.42;100.00;100549.75;5050160;28;20028;-74
2023/09/20 09:16:36;;;;;;;2.95;2.17;;;;;;;18.49;100.00;100554.66;5048194;28;20025;-68
2023/09/20 09:19:01;;;;;;;6.03;2.58;;;;;;;18.47;100.00;100568.09;5048055;28;20039;-69
2023/09/20 09:21:27;;;;;;;4.10;2.38;;;;;;;18.43;100.00;100569.28;5049171;28;20017;-75
2023/09/20 09:23:52;;;;;;;7.55;2.85;;;;;;;18.50;100.00;100565.22;5047761;28;20379;-66
2023/09/20 09:26:17;;;;;;;6.15;2.85;;;;;;;18.52;100.00;100552.63;5049234;28;20112;-70
2023/09/20 09:28:46;;;;;;;9.95;3.58;;;;;;;18.43;100.00;100567.44;5048115;28;20059;-70
2023/09/20 09:31:13;;;;;;;5.70;2.67;;;;;;;18.66;100.00;100556.94;5047923;28;20055;-74
2023/09/20 09:33:39;;;;;;;6.63;2.72;;;;;;;18.79;100.00;100562.22;5048095;28;20523;-73
2023/09/20 09:36:05;;;;;;;8.60;3.10;;;;;;;18.72;100.00;100552.13;5048018;28;20121;-71
2023/09/20 09:38:33;;;;;;;9.23;3.35;;;;;;;18.69;100.00;100564.72;5048346;28;20717;-71
2023/09/20 09:40:59;;;;;;;7.07;2.73;;;;;;;18.71;100.00;100542.41;5047855;28;20021;-73
2023/09/20 09:43:31;;;;;;;10.30;3.33;;;;;;;18.82;100.00;100575.34;5030142;28;20486;-73
2023/09/20 09:46:05;;;;;;;7.32;2.78;;;;;;;18.59;100.00;100550.34;5029456;28;20033;-67
2023/09/20 09:48:32;;;;;;;5.47;2.40;;;;;;;18.84;100.00;100559.22;5029532;28;20024;-73
2023/09/20 09:50:59;;;;;;;10.95;2.60;;;;;;;18.79;100.00;100553.38;5047869;28;20075;-67
2023/09/20 09:53:25;;;;;;;6.35;2.60;;;;;;;18.74;100.00;100551.03;5048668;28;20021;-66
2023/09/20 09:55:51;;;;;;;7.80;2.90;;;;;;;18.87;100.00;100542.97;5048339;28;20052;-73
2023/09/20 09:58:17;;;;;;;10.20;3.35;;;;;;;18.83;100.00;100538.84;5029499;28;20364;-64
2023/09/20 10:00:48;;;;;;;8.75;2.97;;;;;;;18.97;100.00;100542.31;5047937;28;20063;-69
2023/09/20 10:03:32;;;;;;;7.15;2.65;;;;;;;18.92;100.00;100532.81;5048046;28;20036;-73
2023/09/20 10:06:12;;;;;;;4.53;2.60;;;;;;;19.04;100.00;100532.84;5047329;28;20025;-73
2023/09/20 10:08:39;;;;;;;13.57;2.75;;;;;;;19.28;100.00;100527.53;5007367;28;20037;-74
2023/09/20 10:11:06;;;;;;;5.53;2.92;;;;;;;19.42;100.00;100517.59;5008280;28;20077;-74
2023/09/20 10:13:32;;;;;;;8.27;2.88;;;;;;;19.65;100.00;100514.97;5006248;28;20393;-71
2023/09/20 10:16:01;;;;;;;6.22;2.65;;;;;;;19.70;100.00;100519.00;5007888;28;20026;-68
2023/09/20 10:18:33;;;;;;;5.68;2.70;;;;;;;19.82;100.00;100527.03;5023102;28;20050;-66
2023/09/20 10:21:10;;;;;;;7.82;2.95;;;;;;;19.70;100.00;100502.97;5007789;28;20065;-73
2023/09/20 10:23:37;;;;;;;6.18;2.75;;;;;;;19.60;100.00;100507.31;5008078;28;20026;-73
2023/09/20 10:26:10;;;;;;;6.45;3.03;;;;;;;19.46;100.00;100503.03;5007795;28;20037;-72
2023/09/20 10:28:37;;;;;;;4.30;2.47;;;;;;;19.62;100.00;100493.84;5022934;28;20026;-70
2023/09/20 10:31:04;;;;;;;7.82;2.97;;;;;;;19.78;100.00;100498.84;5007348;28;20026;-68
2023/09/20 10:33:47;;;;;;;5.82;2.88;;;;;;;20.00;100.00;100497.13;5005908;28;20065;-71
2023/09/20 10:36:14;;;;;;;7.25;2.95;;;;;;;19.93;100.00;100489.59;5006819;28;20123;-68
2023/09/20 10:38:44;;;;;;;6.18;2.78;;;;;;;19.94;100.00;100498.47;5021879;28;20061;-70
2023/09/20 10:41:12;;;;;;;8.70;2.72;;;;;;;19.88;100.00;100498.94;5006983;28;20029;-70
2023/09/20 10:43:37;;;;;;;9.18;2.70;;;;;;;19.94;100.00;100499.31;5012121;28;20030;-70
2023/09/20 10:46:14;;;;;;;4.90;2.67;;;;;;;19.82;100.00;100510.97;5011354;28;20064;-66
2023/09/20 10:48:43;;;;;;;8.10;2.38;;;;;;;19.64;100.00;100495.41;5011891;28;20617;-66
2023/09/20 10:51:09;;;;;;;9.32;2.83;;;;;;;19.88;100.00;100498.94;5010661;28;20109;-72
2023/09/20 10:53:57;;;;;;;6.20;2.70;;;;;;;20.01;100.00;100483.66;5011823;28;20441;-72
2023/09/20 10:56:50;;;;;;;9.15;2.60;;;;;;;20.31;100.00;100484.84;5000802;28;20050;-64
2023/09/20 10:59:16;;;;;;;7.72;2.50;;;;;;;20.73;100.00;100483.25;5011418;28;20075;-74
2023/09/20 11:01:56;;;;;;;6.55;2.65;;;;;;;20.98;100.00;100475.03;5010621;28;20423;-71
2023/09/20 11:04:23;;;;;;;11.57;2.90;;;;;;;21.28;100.00;100482.28;5026559;28;20479;-71
2023/09/20 11:06:49;;;;;;;11.02;2.53;;;;;;;21.41;100.00;100482.13;5023247;28;20067;-73
2023/09/20 11:09:15;;;;;;;5.15;2.65;;;;;;;21.45;100.00;100483.53;5050882;28;20071;-65
2023/09/20 11:11:42;;;;;;;6.88;3.15;;;;;;;21.27;100.00;100480.59;5050026;28;20581;-74
2023/09/20 11:14:08;;;;;;;7.13;2.97;;;;;;;21.28;100.00;100470.75;5051077;28;20017;-67
2023/09/20 11:16:34;;;;;;;8.40;3.00;;;;;;;21.50;100.00;100468.88;5031742;28;20025;-69
2023/09/20 11:18:59;;;;;;;7.75;2.90;;;;;;;21.36;100.00;100483.47;5050163;28;20040;-63
2023/09/20 11:21:24;;;;;;;6.95;2.58;;;;;;;21.26;100.00;100481.59;5050276;28;20021;-69
2023/09/20 11:23:51;;;;;;;11.27;3.30;;;;;;;21.00;100.00;100478.41;5050158;28;20032;-73
2023/09/20 11:26:29;;;;;;;11.02;2.80;;;;;;;21.06;100.00;100481.44;5050443;28;20017;-67
2023/09/20 11:28:56;;;;;;;9.98;3.28;;;;;;;21.02;100.00;100476.47;5050842;28;20033;-67
2023/09/20 11:31:32;;;;;;;9.77;3.20;;;;;;;21.04;100.00;100471.84;5033158;28;20041;-72
2023/09/20 11:34:03;;;;;;;7.80;3.13;;;;;;;21.06;100.00;100478.78;5031395;28;20471;-71
2023/09/20 11:36:29;;;;;;;6.22;3.10;;;;;;;21.08;100.00;100482.16;5049363;28;20041;-67
2023/09/20 11:38:55;;;;;;;7.60;3.00;;;;;;;21.28;100.00;100482.28;5049703;28;20492;-71
2023/09/20 11:41:22;;;;;;;11.13;2.97;;;;;;;21.36;100.00;100475.41;5050783;28;20108;-65
2023/09/20 11:43:48;;;;;;;7.25;3.25;;;;;;;21.19;100.00;100470.53;5032657;28;20029;-71
2023/09/20 11:46:13;;;;;;;7.38;2.88;;;;;;;21.44;100.00;100463.09;5050040;28;20476;-71
2023/09/20 11:48:38;;;;;;;8.25;3.33;;;;;;;21.43;99.68;100466.72;5049084;28;20056;-72
2023/09/20 11:51:06;;;;;;;8.00;3.17;;;;;;;21.74;97.17;100460.53;5051184;28;20465;-73
2023/09/20 11:53:32;;;;;;;7.35;3.30;;;;;;;21.98;95.01;100461.22;5050394;28;20025;-67
2023/09/20 11:56:03;;;;;;;8.55;3.58;;;;;;;22.02;94.22;100457.25;5050291;28;20029;-70